Time;durP1;ratioP1;P1;durP2;ratioP2;P2;SDS_P1;SDS_P2;PMS_P1;PMS_P2;Temp;Humidity;BMP_temperature;BMP_pressure;BME280_temperature;BME280_humidity;BME280_pressure;Samples;Min_cycle;Max_cycle;Signal;HPM_P1;HPM_P2
2023/04/24 00:02:30;;;;;;;30.83;18.40;;;;;8.90;99614.00;;;;10379496;28;20219;-82
2023/04/24 00:07:32;;;;;;;20.83;17.47;;;;;8.80;99618.00;;;;10392014;28;20234;-84
2023/04/24 00:12:33;;;;;;;24.40;17.43;;;;;8.80;99625.00;;;;10380434;28;20214;-83
2023/04/24 00:17:34;;;;;;;32.30;17.50;;;;;8.80;99616.00;;;;10384576;28;20210;-83
2023/04/24 00:22:36;;;;;;;32.17;17.70;;;;;8.80;99611.00;;;;10363378;28;20238;-83
2023/04/24 00:27:38;;;;;;;22.87;16.73;;;;;8.80;99623.00;;;;10395323;28;20277;-83
2023/04/24 00:32:39;;;;;;;31.60;16.97;;;;;8.80;99637.00;;;;10392785;28;20671;-83
2023/04/24 00:37:41;;;;;;;26.50;15.87;;;;;8.80;99637.00;;;;10379770;28;20241;-84
2023/04/24 00:42:44;;;;;;;28.37;16.17;;;;;8.70;99630.00;;;;10347000;28;20207;-82
2023/04/24 00:47:47;;;;;;;25.47;15.97;;;;;8.60;99633.00;;;;10393547;28;20262;-82
2023/04/24 00:52:48;;;;;;;25.57;15.70;;;;;8.60;99641.00;;;;10343773;28;20277;-83
2023/04/24 00:57:50;;;;;;;22.90;15.53;;;;;8.60;99641.00;;;;10394597;28;20213;-83
2023/04/24 01:02:53;;;;;;;32.93;17.50;;;;;8.60;99637.00;;;;10369451;28;20219;-83
2023/04/24 01:07:54;;;;;;;32.17;17.43;;;;;8.60;99633.00;;;;10378074;28;20226;-83
2023/04/24 01:12:56;;;;;;;22.10;15.70;;;;;8.60;99637.00;;;;10377306;28;20206;-83
2023/04/24 01:17:57;;;;;;;25.00;15.73;;;;;8.60;99629.00;;;;10378575;28;20705;-83
2023/04/24 01:23:00;;;;;;;21.43;15.47;;;;;8.60;99633.00;;;;10360997;28;20233;-83
2023/04/24 01:28:01;;;;;;;28.27;15.73;;;;;8.50;99634.00;;;;10399728;28;20218;-84
2023/04/24 01:33:03;;;;;;;24.87;15.87;;;;;8.40;99625.00;;;;10401143;28;20225;-84
2023/04/24 01:38:05;;;;;;;20.53;15.03;;;;;8.40;99635.00;;;;10342477;28;20233;-84
2023/04/24 01:43:07;;;;;;;21.80;15.03;;;;;8.40;99627.00;;;;10365372;28;20218;-83
2023/04/24 01:48:08;;;;;;;20.83;13.23;;;;;8.40;99626.00;;;;10400179;28;20233;-84
2023/04/24 01:53:10;;;;;;;16.97;11.90;;;;;8.40;99634.00;;;;10385010;28;20221;-84
2023/04/24 01:58:11;;;;;;;15.90;11.27;;;;;8.40;99637.00;;;;10376400;28;20225;-84
2023/04/24 02:03:12;;;;;;;16.20;11.90;;;;;8.30;99635.00;;;;10428041;28;20225;-84
2023/04/24 02:08:14;;;;;;;17.63;11.23;;;;;8.30;99646.00;;;;10371239;28;20302;-84
2023/04/24 02:13:15;;;;;;;20.17;11.40;;;;;8.30;99638.00;;;;10395177;28;20235;-85
2023/04/24 02:18:17;;;;;;;19.80;11.97;;;;;8.20;99647.00;;;;10423175;28;20783;-85
2023/04/24 02:23:19;;;;;;;20.50;12.67;;;;;8.20;99644.00;;;;10390119;28;20234;-84
2023/04/24 02:28:20;;;;;;;20.73;12.60;;;;;8.20;99647.00;;;;10343246;28;20230;-85
2023/04/24 02:33:21;;;;;;;17.10;13.70;;;;;8.20;99641.00;;;;10376803;28;20242;-86
2023/04/24 02:38:23;;;;;;;21.50;13.20;;;;;8.20;99641.00;;;;10393167;28;20274;-84
2023/04/24 02:43:25;;;;;;;21.97;14.37;;;;;8.20;99647.00;;;;10414100;28;20230;-88
2023/04/24 02:48:26;;;;;;;18.83;13.40;;;;;8.20;99646.00;;;;10343586;28;20610;-85
2023/04/24 02:53:29;;;;;;;18.80;11.97;;;;;8.10;99640.00;;;;10424412;28;20293;-86
2023/04/24 02:58:31;;;;;;;17.30;13.10;;;;;8.10;99643.00;;;;10394043;28;20305;-85
2023/04/24 03:03:32;;;;;;;21.23;13.67;;;;;8.00;99636.00;;;;10398316;28;20265;-85
2023/04/24 03:08:34;;;;;;;21.07;14.63;;;;;8.00;99644.00;;;;10388442;28;20230;-85
2023/04/24 03:13:36;;;;;;;21.47;14.10;;;;;8.00;99650.00;;;;10373851;28;20306;-85
2023/04/24 03:18:37;;;;;;;21.23;14.47;;;;;8.00;99645.00;;;;10422123;28;20800;-86
2023/04/24 03:23:41;;;;;;;22.30;14.67;;;;;8.00;99647.00;;;;10346850;28;20207;-88
2023/04/24 03:28:44;;;;;;;19.77;11.80;;;;;8.00;99649.00;;;;10336801;28;20231;-87
2023/04/24 03:33:45;;;;;;;18.60;11.97;;;;;8.00;99667.00;;;;10321332;28;20298;-86
2023/04/24 03:38:47;;;;;;;18.27;10.80;;;;;8.00;99670.00;;;;10372806;28;20255;-86
2023/04/24 03:43:59;;;;;;;11.63;9.00;;;;;8.00;99691.00;;;;10385074;28;20227;-88
2023/04/24 03:49:01;;;;;;;15.17;11.07;;;;;8.00;99688.00;;;;10367080;28;20620;-89
2023/04/24 03:54:07;;;;;;;12.77;9.87;;;;;8.00;99697.00;;;;10362357;28;20215;-87
2023/04/24 03:59:13;;;;;;;13.87;8.07;;;;;8.00;99700.00;;;;10405890;28;20687;-88
2023/04/24 04:04:17;;;;;;;14.33;8.03;;;;;8.00;99707.00;;;;10418791;28;20261;-87
2023/04/24 04:09:20;;;;;;;8.77;7.40;;;;;8.00;99713.00;;;;10369163;28;20243;-88
2023/04/24 04:14:23;;;;;;;10.33;7.77;;;;;8.00;99713.00;;;;10360590;28;20235;-86
2023/04/24 04:19:24;;;;;;;8.97;6.90;;;;;8.00;99716.00;;;;10391458;28;20246;-86
2023/04/24 04:24:28;;;;;;;8.20;6.37;;;;;8.00;99721.00;;;;10359738;28;20301;-85
2023/04/24 04:29:34;;;;;;;9.93;6.50;;;;;8.00;99731.00;;;;10337054;28;20203;-86
2023/04/24 04:34:39;;;;;;;7.63;5.93;;;;;8.00;99745.00;;;;10333209;28;20822;-86
2023/04/24 04:39:42;;;;;;;8.80;5.83;;;;;7.90;99756.00;;;;10392813;28;20218;-85
2023/04/24 04:44:50;;;;;;;10.77;7.43;;;;;7.90;99777.00;;;;10359222;28;20793;-84
2023/04/24 04:49:55;;;;;;;9.83;7.57;;;;;7.90;99783.00;;;;10391022;28;20233;-85
2023/04/24 04:55:00;;;;;;;13.63;8.83;;;;;7.90;99788.00;;;;10399144;28;20237;-85
2023/04/24 05:00:22;;;;;;;13.10;9.37;;;;;7.80;99808.00;;;;10425059;28;20251;-85
2023/04/24 05:05:27;;;;;;;13.47;9.53;;;;;7.80;99821.00;;;;10367312;28;20218;-85
2023/04/24 05:10:28;;;;;;;17.43;11.47;;;;;7.80;99845.00;;;;10356613;28;20955;-86
2023/04/24 05:15:31;;;;;;;16.37;10.70;;;;;7.80;99846.00;;;;10333668;28;20225;-85
2023/04/24 05:20:34;;;;;;;16.57;10.30;;;;;7.80;99845.00;;;;10390789;28;20206;-86
2023/04/24 05:25:38;;;;;;;17.87;10.83;;;;;7.80;99872.00;;;;10398222;28;20273;-85
2023/04/24 05:30:43;;;;;;;14.50;10.87;;;;;7.90;99854.00;;;;10381906;28;20195;-85
2023/04/24 05:35:46;;;;;;;18.30;11.40;;;;;7.90;99887.00;;;;10381696;28;20286;-84
2023/04/24 05:40:48;;;;;;;15.63;11.37;;;;;7.80;99894.00;;;;10368132;28;20218;-86
2023/04/24 05:45:49;;;;;;;17.07;11.03;;;;;7.70;99900.00;;;;10406924;28;20218;-86
2023/04/24 05:50:52;;;;;;;18.50;10.93;;;;;7.60;99915.00;;;;10374999;28;20257;-85
2023/04/24 05:55:53;;;;;;;23.03;12.70;;;;;7.60;99914.00;;;;10390609;28;20237;-85
2023/04/24 06:00:55;;;;;;;21.10;12.20;;;;;7.60;99924.00;;;;10350488;28;20703;-87
2023/04/24 06:05:56;;;;;;;24.10;12.97;;;;;7.60;99934.00;;;;10375006;28;20695;-85
2023/04/24 06:10:58;;;;;;;25.47;14.40;;;;;7.60;99939.00;;;;10399697;28;20214;-87
2023/04/24 06:16:00;;;;;;;15.90;11.23;;;;;7.70;99948.00;;;;10369474;28;20203;-85
2023/04/24 06:21:06;;;;;;;23.27;13.57;;;;;7.70;99948.00;;;;10352732;28;20277;-85
2023/04/24 06:26:08;;;;;;;23.20;13.67;;;;;7.70;99976.00;;;;10362994;28;20265;-85
2023/04/24 06:31:10;;;;;;;21.60;13.43;;;;;7.90;99989.00;;;;10363250;28;20318;-86
2023/04/24 06:36:12;;;;;;;24.07;13.83;;;;;8.00;99991.00;;;;10412782;28;20222;-87
2023/04/24 06:41:13;;;;;;;22.37;15.27;;;;;8.00;100012.00;;;;10360348;28;20800;-87
2023/04/24 06:46:15;;;;;;;25.30;14.10;;;;;7.90;100002.00;;;;10363099;28;20233;-88
2023/04/24 06:51:17;;;;;;;26.47;16.27;;;;;8.00;100004.00;;;;10371238;28;20217;-86
2023/04/24 06:56:20;;;;;;;29.37;16.47;;;;;8.20;100021.00;;;;10403380;28;20301;-86
2023/04/24 07:01:21;;;;;;;30.13;17.27;;;;;8.30;100030.00;;;;10400496;28;20218;-88
2023/04/24 07:06:23;;;;;;;39.73;18.50;;;;;8.60;100042.00;;;;10353179;28;20227;-85
2023/04/24 07:11:29;;;;;;;33.20;18.60;;;;;8.80;100041.00;;;;10353654;28;20216;-86
2023/04/24 07:16:30;;;;;;;30.40;17.93;;;;;8.60;100055.00;;;;10402285;28;20285;-86
2023/04/24 07:21:32;;;;;;;30.10;17.00;;;;;8.40;100058.00;;;;10385523;28;20206;-86
2023/04/24 07:26:33;;;;;;;29.00;17.07;;;;;8.50;100067.00;;;;10391206;28;20234;-85
2023/04/24 07:31:34;;;;;;;34.00;17.90;;;;;8.70;100087.00;;;;10394547;28;20222;-86
2023/04/24 07:36:38;;;;;;;33.63;16.93;;;;;9.00;100097.00;;;;10382480;28;20222;-86
2023/04/24 07:41:39;;;;;;;26.90;16.53;;;;;8.70;100099.00;;;;10426761;28;20215;-86
2023/04/24 07:46:41;;;;;;;28.50;16.70;;;;;8.50;100116.00;;;;10332638;28;20523;-87
2023/04/24 07:51:42;;;;;;;33.20;17.23;;;;;9.00;100121.00;;;;10315322;28;20749;-85
2023/04/24 07:56:54;;;;;;;32.57;16.20;;;;;9.70;100120.00;;;;10566314;23;20201;-80
2023/04/24 08:13:25;;;;;;;19.07;10.90;;;;;9.60;100146.00;;;;10279579;24;20245;-83
2023/04/24 08:18:29;;;;;;;21.30;11.53;;;;;9.00;100156.00;;;;10002115;29;20214;-84
2023/04/24 08:52:57;;;;;;;17.53;8.37;;;;;10.90;100193.00;;;;10486488;24;20251;-72
2023/04/24 08:57:59;;;;;;;20.27;8.50;;;;;10.70;100207.00;;;;9918828;29;20219;-73
2023/04/24 09:03:02;;;;;;;20.10;11.53;;;;;10.60;100210.00;;;;9923402;29;20223;-73
2023/04/24 09:08:05;;;;;;;27.93;15.67;;;;;11.30;100215.00;;;;9931020;29;20231;-84
2023/04/24 09:13:08;;;;;;;27.77;12.07;;;;;12.20;100215.00;;;;9869617;29;20664;-83
2023/04/24 09:18:10;;;;;;;20.03;11.53;;;;;13.30;100201.00;;;;9896880;29;20683;-87
2023/04/24 09:23:17;;;;;;;14.40;7.13;;;;;14.50;100191.00;;;;9914232;29;20247;-84
2023/04/24 09:28:25;;;;;;;20.20;5.60;;;;;12.80;100212.00;;;;9899468;29;20227;-81
2023/04/24 09:33:27;;;;;;;12.40;6.53;;;;;11.10;100224.00;;;;9902153;29;20708;-85
2023/04/24 09:38:36;;;;;;;9.53;6.37;;;;;10.90;100239.00;;;;9874364;29;20230;-83
2023/04/24 09:43:38;;;;;;;13.63;5.33;;;;;12.10;100244.00;;;;9906123;29;20299;-83
2023/04/24 09:48:39;;;;;;;11.20;5.60;;;;;14.50;100239.00;;;;9919459;29;20287;-81
2023/04/24 09:53:46;;;;;;;7.03;4.13;;;;;14.30;100217.00;;;;9909040;29;20223;-81
2023/04/24 09:58:52;;;;;;;10.60;3.77;;;;;13.10;100234.00;;;;9888346;29;20304;-80
2023/04/24 10:03:53;;;;;;;11.80;4.47;;;;;12.40;100246.00;;;;9902048;29;20231;-78
2023/04/24 10:08:56;;;;;;;9.90;4.33;;;;;12.80;100257.00;;;;9928012;29;20303;-80
2023/04/24 10:13:57;;;;;;;10.73;4.87;;;;;13.80;100272.00;;;;9940939;29;20573;-81
2023/04/24 10:19:00;;;;;;;6.43;4.00;;;;;14.30;100258.00;;;;9921300;29;20581;-82
2023/04/24 10:24:03;;;;;;;9.63;4.03;;;;;14.60;100250.00;;;;9928508;29;20271;-83
2023/04/24 10:29:09;;;;;;;10.77;4.53;;;;;14.30;100252.00;;;;9924106;29;20308;-82
2023/04/24 10:34:11;;;;;;;6.47;3.63;;;;;13.60;100270.00;;;;9940130;29;20284;-82
2023/04/24 10:39:17;;;;;;;6.57;4.07;;;;;13.20;100279.00;;;;9943027;29;20222;-84
2023/04/24 10:44:22;;;;;;;11.07;5.10;;;;;13.10;100284.00;;;;9896935;29;20243;-82
2023/04/24 10:49:30;;;;;;;8.33;3.87;;;;;13.20;100289.00;;;;9919689;29;20253;-82
2023/04/24 10:54:45;;;;;;;8.10;3.93;;;;;13.70;100285.00;;;;9909525;29;20701;-77
2023/04/24 11:00:09;;;;;;;7.23;3.87;;;;;13.60;100295.00;;;;9929876;29;20563;-83
2023/04/24 11:05:14;;;;;;;9.07;3.40;;;;;13.90;100298.00;;;;9881075;29;20581;-84
2023/04/24 11:10:26;;;;;;;9.10;4.80;;;;;14.10;100294.00;;;;9921322;29;20315;-83
2023/04/24 11:15:29;;;;;;;6.97;4.17;;;;;14.20;100287.00;;;;9906731;29;20376;-83
2023/04/24 11:20:30;;;;;;;9.67;3.80;;;;;15.20;100297.00;;;;9907142;29;21024;-83
2023/04/24 11:25:32;;;;;;;9.27;3.67;;;;;15.50;100302.00;;;;9917501;29;20658;-84
2023/04/24 11:30:35;;;;;;;7.73;4.37;;;;;15.00;100304.00;;;;9897476;29;20231;-84
2023/04/24 11:35:40;;;;;;;7.60;4.47;;;;;16.30;100303.00;;;;9904936;29;20234;-82
2023/04/24 11:40:41;;;;;;;7.28;4.45;;;;;15.80;100318.00;;;;9904090;29;20269;-83
2023/04/24 11:45:48;;;;;;;9.77;4.57;;;;;14.40;100319.00;;;;9895559;29;20288;-82
2023/04/24 11:50:51;;;;;;;7.87;4.30;;;;;14.90;100316.00;;;;9910993;29;20609;-80
2023/04/24 11:55:52;;;;;;;9.47;5.60;;;;;14.70;100326.00;;;;9906730;29;20238;-81
2023/04/24 12:00:57;;;;;;;5.97;4.20;;;;;14.60;100326.00;;;;9897162;29;20924;-81
2023/04/24 12:06:10;;;;;;;6.45;4.57;;;;;16.70;100317.00;;;;9913462;29;20219;-82
2023/04/24 12:11:15;;;;;;;5.65;3.65;;;;;16.80;100325.00;;;;9904811;29;20229;-82
2023/04/24 12:16:16;;;;;;;8.18;4.90;;;;;16.90;100326.00;;;;9896296;29;20302;-79
2023/04/24 12:21:24;;;;;;;7.32;4.20;;;;;17.80;100335.00;;;;9910282;29;20223;-84
2023/04/24 12:26:27;;;;;;;4.22;3.10;;;;;16.50;100330.00;;;;9908785;29;20363;-82
2023/04/24 12:31:30;;;;;;;7.68;4.57;;;;;17.00;100334.00;;;;9892608;29;20285;-82
2023/04/24 12:36:31;;;;;;;5.95;3.72;;;;;17.70;100335.00;;;;9902428;29;20230;-85
2023/04/24 12:41:33;;;;;;;4.80;3.97;;;;;17.80;100334.00;;;;9915768;29;20210;-85
2023/04/24 12:46:34;;;;;;;12.82;3.90;;;;;18.40;100316.00;;;;9922371;29;20218;-82
2023/04/24 12:51:36;;;;;;;5.72;3.78;;;;;16.90;100330.00;;;;9931730;29;20832;-82
2023/04/24 12:56:39;;;;;;;6.88;4.00;;;;;15.50;100335.00;;;;9939511;29;20222;-82
2023/04/24 13:01:41;;;;;;;7.45;4.05;;;;;14.30;100337.00;;;;9902402;29;20314;-84
2023/04/24 13:06:42;;;;;;;7.97;4.25;;;;;14.80;100335.00;;;;9916606;29;20264;-83
2023/04/24 13:11:44;;;;;;;10.03;4.70;;;;;14.30;100339.00;;;;9914490;29;20203;-83
2023/04/24 13:16:45;;;;;;;3.37;2.90;;;;;15.90;100326.00;;;;9904575;29;20250;-84
2023/04/24 13:21:46;;;;;;;8.43;2.67;;;;;16.50;100319.00;;;;9934051;29;20242;-85
2023/04/24 13:26:48;;;;;;;4.65;2.67;;;;;18.20;100322.00;;;;9907731;29;20260;-85
2023/04/24 13:31:51;;;;;;;5.70;2.40;;;;;18.40;100321.00;;;;9909440;29;20249;-80
2023/04/24 13:36:54;;;;;;;4.32;2.30;;;;;18.00;100338.00;;;;9906823;29;20263;-83
2023/04/24 13:41:57;;;;;;;4.40;2.50;;;;;16.20;100346.00;;;;9911446;29;20218;-82
2023/04/24 13:46:59;;;;;;;4.47;2.63;;;;;16.30;100317.00;;;;9926099;29;20228;-86
2023/04/24 13:52:00;;;;;;;3.78;2.58;;;;;16.00;100318.00;;;;9920405;29;20683;-82
2023/04/24 13:57:03;;;;;;;4.88;2.65;;;;;15.80;100331.00;;;;9926405;29;20227;-83
2023/04/24 14:02:05;;;;;;;4.38;2.10;;;;;16.00;100336.00;;;;9928123;29;20226;-83
2023/04/24 14:07:08;;;;;;;3.60;2.08;;;;;15.90;100330.00;;;;9916671;29;20639;-82
2023/04/24 14:12:10;;;;;;;3.50;2.20;;;;;16.40;100336.00;;;;9912474;29;20605;-83
2023/04/24 14:17:11;;;;;;;6.80;2.25;;;;;15.30;100339.00;;;;9910859;29;20318;-83
2023/04/24 14:22:13;;;;;;;3.97;1.90;;;;;16.20;100334.00;;;;9890830;29;20278;-82
2023/04/24 14:27:14;;;;;;;3.85;1.98;;;;;17.60;100330.00;;;;9905407;29;20233;-80
2023/04/24 14:32:17;;;;;;;2.35;1.92;;;;;18.00;100300.00;;;;9891266;29;20306;-83
2023/04/24 14:37:19;;;;;;;5.45;2.40;;;;;20.50;100315.00;;;;9898551;29;20203;-82
2023/04/24 14:42:20;;;;;;;3.35;1.65;;;;;18.40;100353.00;;;;9909842;29;20371;-82
2023/04/24 14:47:22;;;;;;;3.50;2.00;;;;;16.40;100339.00;;;;9912522;29;20582;-82
2023/04/24 14:52:23;;;;;;;6.63;2.83;;;;;14.50;100340.00;;;;9883574;29;20779;-82
2023/04/24 14:57:25;;;;;;;5.95;3.47;;;;;14.10;100340.00;;;;9894871;29;20222;-79
2023/04/24 15:02:26;;;;;;;4.47;2.67;;;;;14.10;100322.00;;;;9910131;29;20233;-82
2023/04/24 15:07:29;;;;;;;6.07;2.90;;;;;14.30;100350.00;;;;9910099;29;20312;-81
2023/04/24 15:12:30;;;;;;;3.77;2.07;;;;;14.40;100341.00;;;;9896160;29;20230;-80
2023/04/24 15:17:32;;;;;;;3.47;1.90;;;;;14.30;100342.00;;;;9901947;29;20215;-77
2023/04/24 15:22:33;;;;;;;6.07;2.10;;;;;14.80;100345.00;;;;9896464;29;20222;-81
2023/04/24 15:27:43;;;;;;;4.40;2.17;;;;;14.30;100356.00;;;;9879662;29;20239;-80
2023/04/24 15:32:44;;;;;;;6.40;3.00;;;;;14.20;100357.00;;;;9907272;29;20268;-78
2023/04/24 15:37:46;;;;;;;4.33;2.80;;;;;14.00;100362.00;;;;9909302;29;20690;-80
2023/04/24 15:42:48;;;;;;;2.90;2.07;;;;;13.70;100365.00;;;;9874930;29;20242;-81
2023/04/24 15:47:50;;;;;;;4.97;2.67;;;;;13.30;100360.00;;;;9879563;29;21018;-80
2023/04/24 15:52:52;;;;;;;6.03;2.73;;;;;13.10;100367.00;;;;9905850;29;20248;-80
2023/04/24 15:57:54;;;;;;;5.77;2.63;;;;;13.00;100371.00;;;;9909481;29;20672;-81
2023/04/24 16:02:55;;;;;;;5.33;3.13;;;;;12.90;100370.00;;;;9904222;29;20231;-80
2023/04/24 16:07:57;;;;;;;4.57;2.90;;;;;13.10;100383.00;;;;9909257;29;20256;-80
2023/04/24 16:13:01;;;;;;;6.43;3.17;;;;;13.10;100391.00;;;;9909347;29;20246;-80
2023/04/24 16:18:03;;;;;;;9.47;2.20;;;;;12.90;100376.00;;;;9910706;29;20215;-81
2023/04/24 16:23:04;;;;;;;4.07;2.00;;;;;12.70;100392.00;;;;9892075;29;20258;-80
2023/04/24 16:28:06;;;;;;;3.03;2.37;;;;;12.70;100377.00;;;;9890665;29;20239;-82
2023/04/24 16:33:08;;;;;;;3.47;2.80;;;;;13.00;100392.00;;;;9909929;29;20234;-80
2023/04/24 16:38:10;;;;;;;4.77;3.70;;;;;12.70;100396.00;;;;9908021;29;20219;-82
2023/04/24 16:43:11;;;;;;;5.10;3.60;;;;;12.40;100396.00;;;;9892374;29;20227;-79
2023/04/24 16:48:12;;;;;;;4.97;3.50;;;;;12.10;100398.00;;;;9894474;29;20566;-81
2023/04/24 16:53:14;;;;;;;5.90;3.50;;;;;12.00;100394.00;;;;9901913;29;20231;-81
2023/04/24 16:58:16;;;;;;;4.47;2.97;;;;;12.70;100394.00;;;;9895163;29;20211;-79
2023/04/24 17:03:17;;;;;;;5.97;2.80;;;;;12.90;100394.00;;;;9892499;29;20233;-82
2023/04/24 17:08:19;;;;;;;5.07;3.00;;;;;12.70;100401.00;;;;9909489;29;20228;-80
2023/04/24 17:13:20;;;;;;;5.20;2.50;;;;;12.40;100408.00;;;;9893545;29;20226;-80
2023/04/24 17:18:23;;;;;;;7.07;3.40;;;;;12.20;100409.00;;;;9910669;29;20614;-82
2023/04/24 17:30:33;;;;;;;5.73;2.40;;;;;11.20;100419.00;;;;9914544;29;20255;-81
2023/04/24 17:35:34;;;;;;;2.80;2.27;;;;;10.90;100404.00;;;;9914688;29;20296;-81
2023/04/24 17:40:38;;;;;;;3.00;2.00;;;;;10.80;100406.00;;;;9912389;29;20286;-81
2023/04/24 17:45:39;;;;;;;4.27;2.73;;;;;10.70;100412.00;;;;9917796;29;20222;-81
2023/04/24 17:50:41;;;;;;;9.57;3.30;;;;;10.60;100418.00;;;;9888260;29;20215;-81
2023/04/24 17:55:42;;;;;;;5.47;2.63;;;;;10.50;100424.00;;;;9915273;29;20682;-80
2023/04/24 18:00:43;;;;;;;5.40;2.30;;;;;10.40;100428.00;;;;9900873;29;20226;-81
2023/04/24 18:05:45;;;;;;;5.97;3.20;;;;;10.20;100438.00;;;;9895907;29;20575;-80
2023/04/24 18:10:46;;;;;;;6.73;3.90;;;;;9.90;100436.00;;;;9899270;29;20273;-81
2023/04/24 18:15:48;;;;;;;5.13;3.27;;;;;9.80;100450.00;;;;9923496;29;20588;-81
2023/04/24 18:20:49;;;;;;;8.83;3.80;;;;;9.60;100451.00;;;;9912078;29;20215;-82
2023/04/24 18:25:50;;;;;;;6.13;3.40;;;;;9.60;100450.00;;;;9897947;29;20563;-80
2023/04/24 18:30:52;;;;;;;6.73;3.57;;;;;9.50;100453.00;;;;9912494;29;20240;-81
2023/04/24 18:35:54;;;;;;;6.00;3.87;;;;;9.40;100462.00;;;;9903032;29;20343;-81
2023/04/24 18:40:56;;;;;;;6.77;3.33;;;;;9.30;100470.00;;;;9889466;29;20219;-80
2023/04/24 18:45:57;;;;;;;8.97;4.03;;;;;9.20;100474.00;;;;9916596;29;20235;-81
2023/04/24 18:50:59;;;;;;;9.80;4.13;;;;;9.10;100477.00;;;;9916938;29;20223;-83
2023/04/24 18:56:00;;;;;;;9.50;4.33;;;;;9.10;100488.00;;;;9883400;29;20231;-82
2023/04/24 19:01:01;;;;;;;8.67;4.27;;;;;9.10;100498.00;;;;9913625;29;20228;-82
2023/04/24 19:06:03;;;;;;;10.60;4.50;;;;;9.10;100516.00;;;;9924160;29;20234;-80
2023/04/24 19:11:04;;;;;;;7.00;4.00;;;;;9.10;100512.00;;;;9914063;29;20235;-79
2023/04/24 19:16:06;;;;;;;8.73;3.80;;;;;9.10;100520.00;;;;9882702;29;20229;-81
2023/04/24 19:21:08;;;;;;;7.63;4.17;;;;;9.00;100520.00;;;;9912765;29;20298;-80
2023/04/24 19:26:10;;;;;;;11.00;4.20;;;;;8.90;100528.00;;;;9916691;29;20219;-81
2023/04/24 19:31:11;;;;;;;7.00;3.60;;;;;8.90;100527.00;;;;9884923;29;20685;-81
2023/04/24 19:36:14;;;;;;;9.37;3.80;;;;;8.90;100525.00;;;;9911038;29;20225;-82
2023/04/24 19:41:16;;;;;;;8.00;2.93;;;;;8.90;100546.00;;;;9885543;29;20227;-80
2023/04/24 19:46:17;;;;;;;7.07;4.00;;;;;8.90;100547.00;;;;9888203;29;20323;-82
2023/04/24 19:51:19;;;;;;;6.70;3.03;;;;;8.80;100554.00;;;;9883541;29;20241;-80
2023/04/24 19:56:20;;;;;;;7.33;3.00;;;;;8.80;100555.00;;;;9893818;29;20219;-82
2023/04/24 20:01:22;;;;;;;7.60;2.93;;;;;8.70;100557.00;;;;9895004;29;20237;-81
2023/04/24 20:06:23;;;;;;;7.87;2.77;;;;;8.70;100576.00;;;;9919837;29;20239;-80
2023/04/24 20:11:24;;;;;;;5.87;3.07;;;;;8.70;100577.00;;;;9910849;29;20244;-82
2023/04/24 20:16:26;;;;;;;8.17;3.87;;;;;8.70;100568.00;;;;9882639;29;20226;-80
2023/04/24 20:21:27;;;;;;;10.73;3.97;;;;;8.70;100572.00;;;;9911169;29;21784;-82
2023/04/24 20:26:29;;;;;;;10.87;3.70;;;;;8.60;100568.00;;;;9912354;29;20230;-82
2023/04/24 20:31:31;;;;;;;9.73;3.93;;;;;8.60;100565.00;;;;9893980;29;20255;-81
2023/04/24 20:36:33;;;;;;;7.80;3.90;;;;;8.50;100576.00;;;;9911755;29;20308;-81
2023/04/24 20:41:35;;;;;;;10.43;3.93;;;;;8.50;100573.00;;;;9911639;29;20230;-82
2023/04/24 20:46:37;;;;;;;8.63;4.03;;;;;8.50;100576.00;;;;9907244;29;20215;-81
2023/04/24 20:51:38;;;;;;;10.87;4.23;;;;;8.40;100576.00;;;;9866342;29;20265;-82
2023/04/24 20:56:40;;;;;;;9.23;4.27;;;;;8.40;100586.00;;;;9908900;29;20230;-81
2023/04/24 21:01:43;;;;;;;11.53;4.10;;;;;8.40;100579.00;;;;9911232;29;20223;-81
2023/04/24 21:06:45;;;;;;;10.67;4.17;;;;;8.40;100582.00;;;;9891973;29;20235;-81
2023/04/24 21:11:46;;;;;;;10.13;3.83;;;;;8.40;100581.00;;;;9893136;29;20301;-82
2023/04/24 21:16:47;;;;;;;8.93;4.33;;;;;8.30;100587.00;;;;9900111;29;20265;-82
2023/04/24 21:21:49;;;;;;;11.13;5.07;;;;;8.30;100576.00;;;;9902794;29;20216;-82
2023/04/24 21:26:50;;;;;;;10.43;4.63;;;;;8.30;100580.00;;;;9888747;29;20256;-83
2023/04/24 21:31:52;;;;;;;13.27;5.10;;;;;8.20;100570.00;;;;9909093;29;20578;-81
2023/04/24 21:36:53;;;;;;;15.60;4.40;;;;;8.20;100576.00;;;;9891723;29;20246;-80
2023/04/24 21:41:56;;;;;;;14.10;6.00;;;;;8.20;100568.00;;;;9891823;29;20240;-81
2023/04/24 21:46:58;;;;;;;15.70;4.73;;;;;8.20;100564.00;;;;9898668;29;20239;-82
2023/04/24 21:51:59;;;;;;;15.63;4.47;;;;;8.10;100567.00;;;;9894683;29;20226;-79
2023/04/24 21:57:01;;;;;;;10.93;4.77;;;;;8.00;100583.00;;;;9908840;29;20225;-81
2023/04/24 22:02:02;;;;;;;18.40;5.43;;;;;8.10;100577.00;;;;9896309;29;20279;-80
2023/04/24 22:07:04;;;;;;;16.80;4.53;;;;;8.00;100579.00;;;;9898636;29;20306;-81
2023/04/24 22:12:05;;;;;;;19.00;5.77;;;;;8.00;100591.00;;;;9916928;29;20652;-80
2023/04/24 22:17:08;;;;;;;16.83;4.97;;;;;7.90;100583.00;;;;9916759;29;20755;-80
2023/04/24 22:22:09;;;;;;;12.73;4.83;;;;;7.70;100589.00;;;;9914142;29;20615;-80
2023/04/24 22:27:11;;;;;;;11.23;4.80;;;;;7.50;100580.00;;;;9921201;29;20232;-79
2023/04/24 22:32:12;;;;;;;15.90;5.10;;;;;7.40;100592.00;;;;9924693;29;20219;-80
2023/04/24 22:37:13;;;;;;;15.93;5.37;;;;;7.40;100593.00;;;;9922007;29;20230;-80
2023/04/24 22:42:15;;;;;;;16.37;5.43;;;;;7.40;100598.00;;;;9924930;29;20218;-80
2023/04/24 22:47:18;;;;;;;17.17;5.57;;;;;7.40;100597.00;;;;9942641;29;20222;-79
2023/04/24 22:52:20;;;;;;;12.57;5.57;;;;;7.40;100589.00;;;;9911377;29;20733;-77
2023/04/24 22:57:22;;;;;;;16.90;5.70;;;;;7.30;100590.00;;;;9930087;29;20222;-78
2023/04/24 23:02:23;;;;;;;16.97;5.03;;;;;7.30;100580.00;;;;9963320;29;20685;-78
2023/04/24 23:07:25;;;;;;;18.00;5.43;;;;;7.30;100589.00;;;;9913752;29;20317;-79
2023/04/24 23:12:26;;;;;;;15.93;5.67;;;;;7.30;100593.00;;;;9915698;29;20348;-78
2023/04/24 23:17:27;;;;;;;12.83;4.50;;;;;7.30;100599.00;;;;9893725;29;20223;-78
2023/04/24 23:22:29;;;;;;;17.23;4.87;;;;;7.30;100599.00;;;;9904508;29;20211;-78
2023/04/24 23:27:31;;;;;;;13.43;4.87;;;;;7.30;100601.00;;;;9903527;29;20212;-79
2023/04/24 23:32:32;;;;;;;15.20;4.43;;;;;7.30;100606.00;;;;9917757;29;20251;-78
2023/04/24 23:37:37;;;;;;;15.53;5.17;;;;;7.40;100611.00;;;;9965026;29;20225;-78
2023/04/24 23:42:38;;;;;;;17.03;5.20;;;;;7.40;100608.00;;;;9925721;29;20246;-80
2023/04/24 23:47:39;;;;;;;14.30;5.53;;;;;7.40;100609.00;;;;9904348;29;20262;-81
2023/04/24 23:52:41;;;;;;;13.40;4.60;;;;;7.40;100603.00;;;;9908981;29;20219;-81
2023/04/24 23:57:42;;;;;;;11.50;5.37;;;;;7.40;100612.00;;;;9941540;29;20218;-80
